Terminal Aerodrome Forecast
Issued by NWS

Home | Current Version | Previous Version | Text Only | Print | Product List | Glossary On
Versions: 1 2 3 4 5 6 7 8 9 10 11 12 13 14 15 16 17 18 19 20 21 22 23 24 25 26 27 28 29 30 31 32 33 34 35 36 37 38 39 40 41 42 43 44 45
000
FTUS45 KBOU 130913 AAA
TAFBJC
TAF AMD
KBJC 130913Z 1309/1406 31005KT P6SM FEW060 SCT120
     FM131100 VRB03KT P6SM SCT008 SCT120
     FM131500 10005KT P6SM SCT030
     FM131800 07007KT P6SM SCT050 BKN120 PROB30 1321/1402 VRB15G30KT
      -TSRA BKN050CB
     FM140300 30007KT P6SM SCT050 BKN100=

USA.gov is the U.S. government's official web portal to all federal, state and local government web resources and services.